sensor_id;sensor_type;location;lat;lon;timestamp;P1;durP1;ratioP1;P2;durP2;ratioP2
60038;SDS011;45916;52.734;6.544;2023-01-29T00:00:35;29.50;;;21.75;;
60038;SDS011;45916;52.734;6.544;2023-01-29T00:03:01;25.88;;;20.67;;
60038;SDS011;45916;52.734;6.544;2023-01-29T00:05:26;24.58;;;21.00;;
60038;SDS011;45916;52.734;6.544;2023-01-29T00:07:52;28.05;;;20.88;;
60038;SDS011;45916;52.734;6.544;2023-01-29T00:10:18;24.50;;;19.40;;
60038;SDS011;45916;52.734;6.544;2023-01-29T00:12:43;25.83;;;21.40;;
60038;SDS011;45916;52.734;6.544;2023-01-29T00:15:09;22.40;;;19.40;;
60038;SDS011;45916;52.734;6.544;2023-01-29T00:17:35;27.15;;;20.50;;
60038;SDS011;45916;52.734;6.544;2023-01-29T00:20:00;29.23;;;20.98;;
60038;SDS011;45916;52.734;6.544;2023-01-29T00:22:26;25.88;;;19.33;;
60038;SDS011;45916;52.734;6.544;2023-01-29T00:24:54;26.65;;;21.20;;
60038;SDS011;45916;52.734;6.544;2023-01-29T00:27:20;24.60;;;18.85;;
60038;SDS011;45916;52.734;6.544;2023-01-29T00:29:45;23.10;;;19.80;;
60038;SDS011;45916;52.734;6.544;2023-01-29T00:32:31;28.17;;;20.98;;
60038;SDS011;45916;52.734;6.544;2023-01-29T00:34:57;24.73;;;20.55;;
60038;SDS011;45916;52.734;6.544;2023-01-29T00:37:22;23.92;;;20.33;;
60038;SDS011;45916;52.734;6.544;2023-01-29T00:39:48;25.83;;;20.15;;
60038;SDS011;45916;52.734;6.544;2023-01-29T00:42:14;26.83;;;19.33;;
60038;SDS011;45916;52.734;6.544;2023-01-29T00:44:58;25.85;;;19.67;;
60038;SDS011;45916;52.734;6.544;2023-01-29T00:47:24;25.02;;;20.17;;
60038;SDS011;45916;52.734;6.544;2023-01-29T00:49:57;25.17;;;19.92;;
60038;SDS011;45916;52.734;6.544;2023-01-29T00:52:24;29.98;;;21.45;;
60038;SDS011;45916;52.734;6.544;2023-01-29T00:54:58;25.50;;;21.35;;
60038;SDS011;45916;52.734;6.544;2023-01-29T00:57:25;28.00;;;19.23;;
60038;SDS011;45916;52.734;6.544;2023-01-29T00:59:52;27.77;;;21.08;;
60038;SDS011;45916;52.734;6.544;2023-01-29T01:02:18;25.63;;;19.80;;
60038;SDS011;45916;52.734;6.544;2023-01-29T01:05:03;26.85;;;21.15;;
60038;SDS011;45916;52.734;6.544;2023-01-29T01:07:38;26.27;;;19.77;;
60038;SDS011;45916;52.734;6.544;2023-01-29T01:10:05;24.75;;;20.67;;
60038;SDS011;45916;52.734;6.544;2023-01-29T01:15:20;24.65;;;19.88;;
60038;SDS011;45916;52.734;6.544;2023-01-29T01:17:47;23.65;;;19.83;;
60038;SDS011;45916;52.734;6.544;2023-01-29T01:20:16;27.08;;;21.10;;
60038;SDS011;45916;52.734;6.544;2023-01-29T01:22:42;25.15;;;20.42;;
60038;SDS011;45916;52.734;6.544;2023-01-29T01:25:08;25.67;;;20.77;;
60038;SDS011;45916;52.734;6.544;2023-01-29T01:27:34;24.60;;;20.23;;
60038;SDS011;45916;52.734;6.544;2023-01-29T01:30:01;25.90;;;20.35;;
60038;SDS011;45916;52.734;6.544;2023-01-29T01:32:28;25.55;;;20.77;;
60038;SDS011;45916;52.734;6.544;2023-01-29T01:34:54;26.67;;;21.13;;
60038;SDS011;45916;52.734;6.544;2023-01-29T01:37:19;27.25;;;20.67;;
60038;SDS011;45916;52.734;6.544;2023-01-29T01:39:46;25.33;;;20.77;;
60038;SDS011;45916;52.734;6.544;2023-01-29T01:42:12;24.85;;;19.70;;
60038;SDS011;45916;52.734;6.544;2023-01-29T01:47:23;26.67;;;19.80;;
60038;SDS011;45916;52.734;6.544;2023-01-29T01:50:00;25.52;;;20.15;;
60038;SDS011;45916;52.734;6.544;2023-01-29T01:52:41;25.17;;;20.05;;
60038;SDS011;45916;52.734;6.544;2023-01-29T01:55:12;23.40;;;19.55;;
60038;SDS011;45916;52.734;6.544;2023-01-29T01:57:41;26.38;;;21.65;;
60038;SDS011;45916;52.734;6.544;2023-01-29T02:00:11;26.30;;;19.42;;
60038;SDS011;45916;52.734;6.544;2023-01-29T02:02:40;24.73;;;20.83;;
60038;SDS011;45916;52.734;6.544;2023-01-29T02:05:27;27.20;;;20.23;;
60038;SDS011;45916;52.734;6.544;2023-01-29T02:08:13;23.05;;;19.48;;
60038;SDS011;45916;52.734;6.544;2023-01-29T02:10:59;25.02;;;19.85;;
60038;SDS011;45916;52.734;6.544;2023-01-29T02:13:25;28.67;;;20.10;;
60038;SDS011;45916;52.734;6.544;2023-01-29T02:15:51;25.75;;;20.67;;
60038;SDS011;45916;52.734;6.544;2023-01-29T02:18:18;24.50;;;20.15;;
60038;SDS011;45916;52.734;6.544;2023-01-29T02:26:50;24.90;;;19.42;;
60038;SDS011;45916;52.734;6.544;2023-01-29T02:29:43;26.60;;;20.83;;
60038;SDS011;45916;52.734;6.544;2023-01-29T02:32:18;24.38;;;20.40;;
60038;SDS011;45916;52.734;6.544;2023-01-29T02:34:53;24.88;;;19.83;;
60038;SDS011;45916;52.734;6.544;2023-01-29T02:51:52;25.25;;;21.02;;
60038;SDS011;45916;52.734;6.544;2023-01-29T02:54:30;26.95;;;20.75;;
60038;SDS011;45916;52.734;6.544;2023-01-29T02:57:03;25.08;;;20.67;;
60038;SDS011;45916;52.734;6.544;2023-01-29T02:59:54;27.60;;;20.15;;
60038;SDS011;45916;52.734;6.544;2023-01-29T03:02:31;25.95;;;21.10;;
60038;SDS011;45916;52.734;6.544;2023-01-29T03:05:08;24.90;;;21.02;;
60038;SDS011;45916;52.734;6.544;2023-01-29T03:07:48;26.65;;;21.88;;
60038;SDS011;45916;52.734;6.544;2023-01-29T03:10:34;27.42;;;21.50;;
60038;SDS011;45916;52.734;6.544;2023-01-29T03:15:38;25.50;;;21.48;;
60038;SDS011;45916;52.734;6.544;2023-01-29T03:18:13;26.75;;;21.98;;
60038;SDS011;45916;52.734;6.544;2023-01-29T03:20:49;24.98;;;21.25;;
60038;SDS011;45916;52.734;6.544;2023-01-29T03:23:26;24.63;;;21.88;;
60038;SDS011;45916;52.734;6.544;2023-01-29T03:26:12;26.05;;;21.63;;
60038;SDS011;45916;52.734;6.544;2023-01-29T03:28:59;27.85;;;21.85;;
60038;SDS011;45916;52.734;6.544;2023-01-29T03:31:46;27.63;;;23.25;;
60038;SDS011;45916;52.734;6.544;2023-01-29T03:34:40;27.85;;;21.98;;
60038;SDS011;45916;52.734;6.544;2023-01-29T03:37:20;26.75;;;22.48;;
60038;SDS011;45916;52.734;6.544;2023-01-29T03:39:49;25.33;;;21.70;;
60038;SDS011;45916;52.734;6.544;2023-01-29T03:45:13;29.15;;;24.08;;
60038;SDS011;45916;52.734;6.544;2023-01-29T03:47:49;28.92;;;23.75;;
60038;SDS011;45916;52.734;6.544;2023-01-29T03:53:51;28.52;;;22.80;;
60038;SDS011;45916;52.734;6.544;2023-01-29T04:01:58;30.02;;;24.67;;
60038;SDS011;45916;52.734;6.544;2023-01-29T04:04:35;31.83;;;24.48;;
60038;SDS011;45916;52.734;6.544;2023-01-29T04:07:04;28.40;;;25.05;;
60038;SDS011;45916;52.734;6.544;2023-01-29T04:10:02;29.67;;;24.13;;
60038;SDS011;45916;52.734;6.544;2023-01-29T04:12:54;30.35;;;25.88;;
60038;SDS011;45916;52.734;6.544;2023-01-29T04:15:23;31.95;;;24.63;;
60038;SDS011;45916;52.734;6.544;2023-01-29T04:17:54;30.20;;;25.33;;
60038;SDS011;45916;52.734;6.544;2023-01-29T04:20:20;29.48;;;24.92;;
60038;SDS011;45916;52.734;6.544;2023-01-29T04:22:48;28.80;;;25.40;;
60038;SDS011;45916;52.734;6.544;2023-01-29T04:25:16;30.77;;;24.75;;
60038;SDS011;45916;52.734;6.544;2023-01-29T04:30:38;30.38;;;25.88;;
60038;SDS011;45916;52.734;6.544;2023-01-29T04:58:38;31.98;;;26.65;;
60038;SDS011;45916;52.734;6.544;2023-01-29T05:01:10;33.17;;;27.38;;
60038;SDS011;45916;52.734;6.544;2023-01-29T05:03:39;31.83;;;27.63;;
60038;SDS011;45916;52.734;6.544;2023-01-29T05:06:07;36.50;;;29.50;;
60038;SDS011;45916;52.734;6.544;2023-01-29T05:08:35;34.30;;;28.70;;
60038;SDS011;45916;52.734;6.544;2023-01-29T05:11:03;36.03;;;30.35;;
60038;SDS011;45916;52.734;6.544;2023-01-29T05:13:29;33.50;;;28.77;;
60038;SDS011;45916;52.734;6.544;2023-01-29T05:18:23;33.70;;;28.48;;
60038;SDS011;45916;52.734;6.544;2023-01-29T05:20:49;32.88;;;29.23;;
60038;SDS011;45916;52.734;6.544;2023-01-29T05:23:16;33.60;;;29.33;;
60038;SDS011;45916;52.734;6.544;2023-01-29T05:25:43;31.48;;;26.98;;
60038;SDS011;45916;52.734;6.544;2023-01-29T05:28:10;33.67;;;29.42;;
60038;SDS011;45916;52.734;6.544;2023-01-29T05:30:41;34.95;;;30.73;;
60038;SDS011;45916;52.734;6.544;2023-01-29T05:33:14;35.60;;;31.23;;
60038;SDS011;45916;52.734;6.544;2023-01-29T05:38:08;34.13;;;28.30;;
60038;SDS011;45916;52.734;6.544;2023-01-29T05:40:34;35.20;;;29.88;;
60038;SDS011;45916;52.734;6.544;2023-01-29T05:43:00;33.30;;;29.50;;
60038;SDS011;45916;52.734;6.544;2023-01-29T05:45:26;34.45;;;30.17;;
60038;SDS011;45916;52.734;6.544;2023-01-29T05:47:55;33.13;;;29.05;;
60038;SDS011;45916;52.734;6.544;2023-01-29T05:50:22;33.78;;;28.00;;
60038;SDS011;45916;52.734;6.544;2023-01-29T05:52:49;32.15;;;28.55;;
60038;SDS011;45916;52.734;6.544;2023-01-29T05:55:19;34.60;;;30.92;;
60038;SDS011;45916;52.734;6.544;2023-01-29T05:57:45;33.58;;;29.77;;
60038;SDS011;45916;52.734;6.544;2023-01-29T06:00:11;34.47;;;29.02;;
60038;SDS011;45916;52.734;6.544;2023-01-29T06:02:37;33.50;;;29.85;;
60038;SDS011;45916;52.734;6.544;2023-01-29T06:05:03;36.33;;;28.90;;
60038;SDS011;45916;52.734;6.544;2023-01-29T06:07:29;32.05;;;27.60;;
60038;SDS011;45916;52.734;6.544;2023-01-29T06:09:54;35.45;;;31.20;;
60038;SDS011;45916;52.734;6.544;2023-01-29T06:12:20;35.72;;;30.50;;
60038;SDS011;45916;52.734;6.544;2023-01-29T06:14:46;35.03;;;30.58;;
60038;SDS011;45916;52.734;6.544;2023-01-29T06:17:11;35.25;;;30.00;;
60038;SDS011;45916;52.734;6.544;2023-01-29T06:19:37;33.22;;;28.85;;
60038;SDS011;45916;52.734;6.544;2023-01-29T06:22:03;36.00;;;31.58;;
60038;SDS011;45916;52.734;6.544;2023-01-29T06:24:29;35.42;;;30.25;;
60038;SDS011;45916;52.734;6.544;2023-01-29T06:26:54;36.40;;;31.63;;
60038;SDS011;45916;52.734;6.544;2023-01-29T06:29:20;34.80;;;29.17;;
60038;SDS011;45916;52.734;6.544;2023-01-29T06:31:46;38.15;;;29.98;;
60038;SDS011;45916;52.734;6.544;2023-01-29T06:34:11;37.17;;;32.08;;
60038;SDS011;45916;52.734;6.544;2023-01-29T06:36:37;33.47;;;29.40;;
60038;SDS011;45916;52.734;6.544;2023-01-29T06:39:03;36.10;;;31.52;;
60038;SDS011;45916;52.734;6.544;2023-01-29T06:41:29;36.80;;;31.05;;
60038;SDS011;45916;52.734;6.544;2023-01-29T06:43:54;36.20;;;31.27;;
60038;SDS011;45916;52.734;6.544;2023-01-29T06:46:20;35.47;;;31.02;;
60038;SDS011;45916;52.734;6.544;2023-01-29T06:48:46;35.55;;;28.67;;
60038;SDS011;45916;52.734;6.544;2023-01-29T06:51:13;39.25;;;33.50;;
60038;SDS011;45916;52.734;6.544;2023-01-29T06:53:38;36.25;;;30.50;;
60038;SDS011;45916;52.734;6.544;2023-01-29T06:56:04;35.38;;;30.95;;
60038;SDS011;45916;52.734;6.544;2023-01-29T06:58:31;36.25;;;30.23;;
60038;SDS011;45916;52.734;6.544;2023-01-29T07:01:07;35.90;;;31.23;;
60038;SDS011;45916;52.734;6.544;2023-01-29T07:03:34;37.58;;;32.50;;
60038;SDS011;45916;52.734;6.544;2023-01-29T07:06:00;36.72;;;32.72;;
60038;SDS011;45916;52.734;6.544;2023-01-29T07:08:27;38.38;;;32.70;;
60038;SDS011;45916;52.734;6.544;2023-01-29T07:10:53;36.47;;;32.53;;
60038;SDS011;45916;52.734;6.544;2023-01-29T07:13:24;40.75;;;33.58;;
60038;SDS011;45916;52.734;6.544;2023-01-29T07:15:49;36.40;;;32.25;;
60038;SDS011;45916;52.734;6.544;2023-01-29T07:18:15;39.15;;;32.05;;
60038;SDS011;45916;52.734;6.544;2023-01-29T07:20:41;36.45;;;32.55;;
60038;SDS011;45916;52.734;6.544;2023-01-29T07:23:13;36.35;;;32.08;;
60038;SDS011;45916;52.734;6.544;2023-01-29T07:25:39;37.80;;;32.15;;
60038;SDS011;45916;52.734;6.544;2023-01-29T07:28:05;38.72;;;31.75;;
60038;SDS011;45916;52.734;6.544;2023-01-29T07:30:31;40.80;;;33.47;;
60038;SDS011;45916;52.734;6.544;2023-01-29T07:33:01;38.28;;;32.38;;
60038;SDS011;45916;52.734;6.544;2023-01-29T07:35:31;37.45;;;32.97;;
60038;SDS011;45916;52.734;6.544;2023-01-29T07:38:00;40.28;;;31.90;;
60038;SDS011;45916;52.734;6.544;2023-01-29T07:40:25;36.90;;;32.85;;
60038;SDS011;45916;52.734;6.544;2023-01-29T07:42:56;37.38;;;32.45;;
60038;SDS011;45916;52.734;6.544;2023-01-29T07:45:25;39.70;;;32.60;;
60038;SDS011;45916;52.734;6.544;2023-01-29T07:47:51;38.63;;;32.10;;
60038;SDS011;45916;52.734;6.544;2023-01-29T07:50:19;39.03;;;32.97;;
60038;SDS011;45916;52.734;6.544;2023-01-29T07:52:45;37.85;;;31.88;;
60038;SDS011;45916;52.734;6.544;2023-01-29T07:55:11;36.47;;;29.35;;
60038;SDS011;45916;52.734;6.544;2023-01-29T07:57:36;36.95;;;30.40;;
60038;SDS011;45916;52.734;6.544;2023-01-29T08:00:02;37.63;;;30.50;;
60038;SDS011;45916;52.734;6.544;2023-01-29T08:02:28;41.78;;;32.03;;
60038;SDS011;45916;52.734;6.544;2023-01-29T08:04:54;39.72;;;31.80;;
60038;SDS011;45916;52.734;6.544;2023-01-29T08:07:19;39.05;;;31.60;;
60038;SDS011;45916;52.734;6.544;2023-01-29T08:09:45;37.75;;;32.35;;
60038;SDS011;45916;52.734;6.544;2023-01-29T08:12:11;39.70;;;30.55;;
60038;SDS011;45916;52.734;6.544;2023-01-29T08:14:36;40.13;;;29.17;;
60038;SDS011;45916;52.734;6.544;2023-01-29T08:17:02;37.20;;;30.83;;
60038;SDS011;45916;52.734;6.544;2023-01-29T08:19:28;38.97;;;29.50;;
60038;SDS011;45916;52.734;6.544;2023-01-29T08:21:53;40.60;;;31.55;;
60038;SDS011;45916;52.734;6.544;2023-01-29T08:24:19;39.70;;;30.73;;
60038;SDS011;45916;52.734;6.544;2023-01-29T08:26:45;42.85;;;32.78;;
60038;SDS011;45916;52.734;6.544;2023-01-29T08:29:11;37.25;;;30.20;;
60038;SDS011;45916;52.734;6.544;2023-01-29T08:31:36;38.40;;;31.27;;
60038;SDS011;45916;52.734;6.544;2023-01-29T08:34:02;38.42;;;30.30;;
60038;SDS011;45916;52.734;6.544;2023-01-29T08:36:28;38.15;;;30.45;;
60038;SDS011;45916;52.734;6.544;2023-01-29T08:38:54;41.22;;;31.65;;
60038;SDS011;45916;52.734;6.544;2023-01-29T08:41:19;35.78;;;24.98;;
60038;SDS011;45916;52.734;6.544;2023-01-29T08:43:45;39.75;;;31.88;;
60038;SDS011;45916;52.734;6.544;2023-01-29T08:46:11;38.40;;;29.13;;
60038;SDS011;45916;52.734;6.544;2023-01-29T08:48:37;36.50;;;29.20;;
60038;SDS011;45916;52.734;6.544;2023-01-29T08:51:03;38.63;;;29.85;;
60038;SDS011;45916;52.734;6.544;2023-01-29T08:53:29;38.42;;;30.77;;
60038;SDS011;45916;52.734;6.544;2023-01-29T08:55:55;38.58;;;31.55;;
60038;SDS011;45916;52.734;6.544;2023-01-29T08:58:22;32.85;;;27.92;;
60038;SDS011;45916;52.734;6.544;2023-01-29T09:00:47;37.95;;;30.73;;
60038;SDS011;45916;52.734;6.544;2023-01-29T09:03:13;42.42;;;32.78;;
60038;SDS011;45916;52.734;6.544;2023-01-29T09:05:39;36.42;;;29.05;;
60038;SDS011;45916;52.734;6.544;2023-01-29T09:08:06;39.13;;;30.92;;
60038;SDS011;45916;52.734;6.544;2023-01-29T09:10:33;42.22;;;32.78;;
60038;SDS011;45916;52.734;6.544;2023-01-29T09:12:59;36.45;;;30.77;;
60038;SDS011;45916;52.734;6.544;2023-01-29T09:15:25;38.45;;;31.63;;
60038;SDS011;45916;52.734;6.544;2023-01-29T09:17:51;38.83;;;30.65;;
60038;SDS011;45916;52.734;6.544;2023-01-29T09:20:17;36.30;;;30.25;;
60038;SDS011;45916;52.734;6.544;2023-01-29T09:22:46;34.20;;;29.20;;
60038;SDS011;45916;52.734;6.544;2023-01-29T09:25:13;38.38;;;29.02;;
60038;SDS011;45916;52.734;6.544;2023-01-29T09:27:39;37.47;;;32.08;;
60038;SDS011;45916;52.734;6.544;2023-01-29T09:30:05;37.85;;;29.55;;
60038;SDS011;45916;52.734;6.544;2023-01-29T09:32:31;38.72;;;30.00;;
60038;SDS011;45916;52.734;6.544;2023-01-29T09:34:58;39.83;;;32.33;;
60038;SDS011;45916;52.734;6.544;2023-01-29T09:37:27;35.30;;;31.52;;
60038;SDS011;45916;52.734;6.544;2023-01-29T09:39:53;36.30;;;30.13;;
60038;SDS011;45916;52.734;6.544;2023-01-29T09:42:53;40.58;;;32.85;;
60038;SDS011;45916;52.734;6.544;2023-01-29T09:45:15;35.78;;;29.80;;
60038;SDS011;45916;52.734;6.544;2023-01-29T09:47:50;36.10;;;29.90;;
60038;SDS011;45916;52.734;6.544;2023-01-29T09:50:31;35.60;;;30.23;;
60038;SDS011;45916;52.734;6.544;2023-01-29T09:53:23;32.33;;;27.65;;
60038;SDS011;45916;52.734;6.544;2023-01-29T09:58:44;41.38;;;28.90;;
60038;SDS011;45916;52.734;6.544;2023-01-29T10:01:11;35.78;;;30.58;;
60038;SDS011;45916;52.734;6.544;2023-01-29T10:15:23;36.55;;;30.00;;
60038;SDS011;45916;52.734;6.544;2023-01-29T10:23:49;37.60;;;30.45;;
60038;SDS011;45916;52.734;6.544;2023-01-29T10:26:19;34.35;;;29.00;;
60038;SDS011;45916;52.734;6.544;2023-01-29T10:28:50;37.42;;;30.58;;
60038;SDS011;45916;52.734;6.544;2023-01-29T10:31:20;35.30;;;29.52;;
60038;SDS011;45916;52.734;6.544;2023-01-29T10:33:59;36.08;;;29.63;;
60038;SDS011;45916;52.734;6.544;2023-01-29T10:36:33;35.42;;;30.70;;
60038;SDS011;45916;52.734;6.544;2023-01-29T10:39:18;38.15;;;28.75;;
60038;SDS011;45916;52.734;6.544;2023-01-29T11:00:58;38.40;;;30.02;;
60038;SDS011;45916;52.734;6.544;2023-01-29T11:03:25;36.20;;;30.02;;
60038;SDS011;45916;52.734;6.544;2023-01-29T11:05:58;35.38;;;30.23;;
60038;SDS011;45916;52.734;6.544;2023-01-29T11:11:14;38.33;;;31.85;;
60038;SDS011;45916;52.734;6.544;2023-01-29T11:16:17;35.83;;;29.13;;
60038;SDS011;45916;52.734;6.544;2023-01-29T11:18:53;34.78;;;29.20;;
60038;SDS011;45916;52.734;6.544;2023-01-29T11:21:19;35.28;;;29.95;;
60038;SDS011;45916;52.734;6.544;2023-01-29T11:23:45;34.10;;;29.95;;
60038;SDS011;45916;52.734;6.544;2023-01-29T11:26:16;34.90;;;29.38;;
60038;SDS011;45916;52.734;6.544;2023-01-29T11:28:45;35.33;;;27.75;;
60038;SDS011;45916;52.734;6.544;2023-01-29T11:31:19;40.25;;;30.70;;
60038;SDS011;45916;52.734;6.544;2023-01-29T11:33:51;34.78;;;29.52;;
60038;SDS011;45916;52.734;6.544;2023-01-29T11:36:37;36.85;;;30.42;;
60038;SDS011;45916;52.734;6.544;2023-01-29T11:41:40;37.28;;;30.27;;
60038;SDS011;45916;52.734;6.544;2023-01-29T11:44:27;38.25;;;30.40;;
60038;SDS011;45916;52.734;6.544;2023-01-29T11:46:57;33.72;;;28.60;;
60038;SDS011;45916;52.734;6.544;2023-01-29T11:49:55;37.03;;;29.48;;
60038;SDS011;45916;52.734;6.544;2023-01-29T11:52:34;37.17;;;30.33;;
60038;SDS011;45916;52.734;6.544;2023-01-29T11:55:04;34.85;;;28.35;;
60038;SDS011;45916;52.734;6.544;2023-01-29T11:57:42;33.70;;;29.08;;
60038;SDS011;45916;52.734;6.544;2023-01-29T12:00:30;34.42;;;29.58;;
60038;SDS011;45916;52.734;6.544;2023-01-29T12:05:36;35.85;;;30.52;;
60038;SDS011;45916;52.734;6.544;2023-01-29T12:08:09;37.50;;;30.65;;
60038;SDS011;45916;52.734;6.544;2023-01-29T12:10:45;37.88;;;30.33;;
60038;SDS011;45916;52.734;6.544;2023-01-29T12:15:42;37.25;;;29.63;;
60038;SDS011;45916;52.734;6.544;2023-01-29T12:18:15;38.92;;;31.67;;
60038;SDS011;45916;52.734;6.544;2023-01-29T12:20:56;36.92;;;29.80;;
60038;SDS011;45916;52.734;6.544;2023-01-29T12:23:34;34.42;;;29.85;;
60038;SDS011;45916;52.734;6.544;2023-01-29T12:26:17;34.40;;;30.33;;
60038;SDS011;45916;52.734;6.544;2023-01-29T12:32:00;37.28;;;28.42;;
60038;SDS011;45916;52.734;6.544;2023-01-29T12:37:10;39.75;;;29.65;;
60038;SDS011;45916;52.734;6.544;2023-01-29T12:39:45;36.88;;;29.33;;
60038;SDS011;45916;52.734;6.544;2023-01-29T12:44:44;35.95;;;26.75;;
60038;SDS011;45916;52.734;6.544;2023-01-29T12:47:15;35.50;;;28.45;;
60038;SDS011;45916;52.734;6.544;2023-01-29T12:49:54;34.17;;;27.48;;
60038;SDS011;45916;52.734;6.544;2023-01-29T12:52:33;34.80;;;28.88;;
60038;SDS011;45916;52.734;6.544;2023-01-29T12:55:21;34.05;;;28.60;;
60038;SDS011;45916;52.734;6.544;2023-01-29T12:58:00;37.00;;;29.20;;
60038;SDS011;45916;52.734;6.544;2023-01-29T13:00:32;34.30;;;29.02;;
60038;SDS011;45916;52.734;6.544;2023-01-29T13:03:18;34.42;;;27.67;;
60038;SDS011;45916;52.734;6.544;2023-01-29T13:08:45;37.88;;;28.95;;
60038;SDS011;45916;52.734;6.544;2023-01-29T13:11:19;41.40;;;29.33;;
60038;SDS011;45916;52.734;6.544;2023-01-29T13:13:50;34.70;;;28.23;;
60038;SDS011;45916;52.734;6.544;2023-01-29T13:16:21;36.20;;;28.85;;
60038;SDS011;45916;52.734;6.544;2023-01-29T13:18:55;37.83;;;30.05;;
60038;SDS011;45916;52.734;6.544;2023-01-29T13:21:25;36.78;;;29.05;;
60038;SDS011;45916;52.734;6.544;2023-01-29T13:23:59;37.83;;;28.30;;
60038;SDS011;45916;52.734;6.544;2023-01-29T13:26:28;42.33;;;30.85;;
60038;SDS011;45916;52.734;6.544;2023-01-29T13:28:55;34.38;;;25.95;;
60038;SDS011;45916;52.734;6.544;2023-01-29T13:31:29;41.47;;;31.65;;
60038;SDS011;45916;52.734;6.544;2023-01-29T13:34:06;39.38;;;31.23;;
60038;SDS011;45916;52.734;6.544;2023-01-29T13:36:34;37.60;;;30.40;;
60038;SDS011;45916;52.734;6.544;2023-01-29T13:39:05;35.35;;;25.95;;
60038;SDS011;45916;52.734;6.544;2023-01-29T13:41:39;40.10;;;32.05;;
60038;SDS011;45916;52.734;6.544;2023-01-29T13:44:08;40.58;;;33.85;;
60038;SDS011;45916;52.734;6.544;2023-01-29T13:46:55;41.03;;;32.22;;
60038;SDS011;45916;52.734;6.544;2023-01-29T13:49:39;41.00;;;32.25;;
60038;SDS011;45916;52.734;6.544;2023-01-29T13:54:56;43.55;;;33.47;;
60038;SDS011;45916;52.734;6.544;2023-01-29T13:57:58;46.35;;;34.25;;
60038;SDS011;45916;52.734;6.544;2023-01-29T14:03:32;40.60;;;32.05;;
60038;SDS011;45916;52.734;6.544;2023-01-29T14:05:55;44.88;;;35.08;;
60038;SDS011;45916;52.734;6.544;2023-01-29T14:08:36;40.83;;;32.77;;
60038;SDS011;45916;52.734;6.544;2023-01-29T14:13:37;45.15;;;35.55;;
60038;SDS011;45916;52.734;6.544;2023-01-29T14:18:30;47.08;;;36.00;;
60038;SDS011;45916;52.734;6.544;2023-01-29T14:20:59;43.33;;;34.90;;
60038;SDS011;45916;52.734;6.544;2023-01-29T14:23:44;43.42;;;35.30;;
60038;SDS011;45916;52.734;6.544;2023-01-29T14:26:20;44.65;;;35.55;;
60038;SDS011;45916;52.734;6.544;2023-01-29T14:28:51;45.17;;;34.65;;
60038;SDS011;45916;52.734;6.544;2023-01-29T14:31:28;46.58;;;35.47;;
60038;SDS011;45916;52.734;6.544;2023-01-29T14:34:03;41.90;;;34.05;;
60038;SDS011;45916;52.734;6.544;2023-01-29T14:36:38;38.58;;;32.40;;
60038;SDS011;45916;52.734;6.544;2023-01-29T14:39:05;44.42;;;32.03;;
60038;SDS011;45916;52.734;6.544;2023-01-29T14:41:43;44.30;;;32.15;;
60038;SDS011;45916;52.734;6.544;2023-01-29T14:47:19;48.83;;;37.30;;
60038;SDS011;45916;52.734;6.544;2023-01-29T14:50:51;44.92;;;33.92;;
60038;SDS011;45916;52.734;6.544;2023-01-29T14:58:38;52.20;;;39.22;;
60038;SDS011;45916;52.734;6.544;2023-01-29T15:04:03;53.42;;;37.70;;
60038;SDS011;45916;52.734;6.544;2023-01-29T15:06:34;55.72;;;39.85;;
60038;SDS011;45916;52.734;6.544;2023-01-29T15:09:16;50.50;;;40.38;;
60038;SDS011;45916;52.734;6.544;2023-01-29T15:14:32;54.35;;;40.75;;
60038;SDS011;45916;52.734;6.544;2023-01-29T15:19:40;51.63;;;39.95;;
60038;SDS011;45916;52.734;6.544;2023-01-29T15:24:42;54.80;;;39.10;;
60038;SDS011;45916;52.734;6.544;2023-01-29T15:27:13;54.17;;;41.53;;
60038;SDS011;45916;52.734;6.544;2023-01-29T15:29:41;54.00;;;42.33;;
60038;SDS011;45916;52.734;6.544;2023-01-29T15:32:15;54.10;;;41.53;;
60038;SDS011;45916;52.734;6.544;2023-01-29T15:34:53;49.45;;;35.60;;
60038;SDS011;45916;52.734;6.544;2023-01-29T15:37:28;57.72;;;42.30;;
60038;SDS011;45916;52.734;6.544;2023-01-29T15:39:58;53.33;;;40.63;;
60038;SDS011;45916;52.734;6.544;2023-01-29T15:42:28;56.70;;;41.92;;
60038;SDS011;45916;52.734;6.544;2023-01-29T15:45:19;55.22;;;41.15;;
60038;SDS011;45916;52.734;6.544;2023-01-29T15:47:54;55.10;;;41.73;;
60038;SDS011;45916;52.734;6.544;2023-01-29T15:50:31;52.10;;;38.80;;
60038;SDS011;45916;52.734;6.544;2023-01-29T15:52:59;55.47;;;38.15;;
60038;SDS011;45916;52.734;6.544;2023-01-29T15:55:30;54.67;;;40.70;;
60038;SDS011;45916;52.734;6.544;2023-01-29T15:57:57;57.28;;;39.88;;
60038;SDS011;45916;52.734;6.544;2023-01-29T16:00:25;50.83;;;40.23;;
60038;SDS011;45916;52.734;6.544;2023-01-29T16:05:20;47.13;;;31.30;;
60038;SDS011;45916;52.734;6.544;2023-01-29T16:07:52;56.80;;;40.58;;
60038;SDS011;45916;52.734;6.544;2023-01-29T16:10:20;53.33;;;39.42;;
60038;SDS011;45916;52.734;6.544;2023-01-29T16:12:51;54.90;;;40.22;;
60038;SDS011;45916;52.734;6.544;2023-01-29T16:15:22;53.53;;;40.00;;
60038;SDS011;45916;52.734;6.544;2023-01-29T16:17:54;53.25;;;38.90;;
60038;SDS011;45916;52.734;6.544;2023-01-29T16:20:34;55.08;;;39.00;;
60038;SDS011;45916;52.734;6.544;2023-01-29T16:23:15;49.97;;;38.63;;
60038;SDS011;45916;52.734;6.544;2023-01-29T16:25:52;57.28;;;39.65;;
60038;SDS011;45916;52.734;6.544;2023-01-29T16:28:20;55.63;;;40.97;;
60038;SDS011;45916;52.734;6.544;2023-01-29T16:30:46;51.45;;;39.45;;
60038;SDS011;45916;52.734;6.544;2023-01-29T16:33:18;43.58;;;28.77;;
60038;SDS011;45916;52.734;6.544;2023-01-29T16:35:49;50.83;;;36.03;;
60038;SDS011;45916;52.734;6.544;2023-01-29T16:38:49;53.50;;;39.03;;
60038;SDS011;45916;52.734;6.544;2023-01-29T16:43:56;56.05;;;37.95;;
60038;SDS011;45916;52.734;6.544;2023-01-29T16:46:48;45.20;;;36.65;;
60038;SDS011;45916;52.734;6.544;2023-01-29T16:51:51;51.97;;;37.55;;
60038;SDS011;45916;52.734;6.544;2023-01-29T16:54:27;47.57;;;39.07;;
60038;SDS011;45916;52.734;6.544;2023-01-29T16:56:54;53.78;;;41.20;;
60038;SDS011;45916;52.734;6.544;2023-01-29T16:59:34;52.70;;;40.30;;
60038;SDS011;45916;52.734;6.544;2023-01-29T17:02:02;49.67;;;38.28;;
60038;SDS011;45916;52.734;6.544;2023-01-29T17:04:28;53.97;;;38.03;;
60038;SDS011;45916;52.734;6.544;2023-01-29T17:06:58;53.00;;;39.78;;
60038;SDS011;45916;52.734;6.544;2023-01-29T17:09:26;53.80;;;36.65;;
60038;SDS011;45916;52.734;6.544;2023-01-29T17:12:03;48.92;;;36.67;;
60038;SDS011;45916;52.734;6.544;2023-01-29T17:14:31;52.58;;;38.17;;
60038;SDS011;45916;52.734;6.544;2023-01-29T17:17:03;49.38;;;38.33;;
60038;SDS011;45916;52.734;6.544;2023-01-29T17:19:31;50.17;;;35.05;;
60038;SDS011;45916;52.734;6.544;2023-01-29T17:21:57;49.65;;;38.80;;
60038;SDS011;45916;52.734;6.544;2023-01-29T17:24:23;53.13;;;41.10;;
60038;SDS011;45916;52.734;6.544;2023-01-29T17:26:49;50.72;;;38.97;;
60038;SDS011;45916;52.734;6.544;2023-01-29T17:29:19;49.88;;;37.03;;
60038;SDS011;45916;52.734;6.544;2023-01-29T17:31:49;52.25;;;38.13;;
60038;SDS011;45916;52.734;6.544;2023-01-29T17:34:15;53.28;;;39.35;;
60038;SDS011;45916;52.734;6.544;2023-01-29T17:36:42;50.93;;;38.33;;
60038;SDS011;45916;52.734;6.544;2023-01-29T17:39:16;53.88;;;40.25;;